Time;durP1;ratioP1;P1;durP2;ratioP2;P2;SDS_P1;SDS_P2;PMS_P1;PMS_P2;Temp;Humidity;BMP_temperature;BMP_pressure;BME280_temperature;BME280_humidity;BME280_pressure;Samples;Min_cycle;Max_cycle;Signal;HPM_P1;HPM_P2
2021/07/01 00:00:19;;;;;;;0.82;0.80;;;;;;;10.97;95.10;95458.97;5080638;28;20097;-78
2021/07/01 00:03:05;;;;;;;1.33;0.90;;;;;;;10.99;95.33;95464.72;5078678;28;20059;-78
2021/07/01 00:05:30;;;;;;;1.00;0.73;;;;;;;10.94;95.05;95459.50;5077482;28;20422;-77
2021/07/01 00:07:56;;;;;;;2.13;1.08;;;;;;;10.87;95.82;95460.56;5077632;28;20036;-77
2021/07/01 00:10:25;;;;;;;1.63;1.08;;;;;;;10.84;96.19;95466.38;5071568;28;20042;-78
2021/07/01 00:12:51;;;;;;;1.55;1.17;;;;;;;10.85;95.60;95460.06;5071256;28;20071;-78
2021/07/01 00:15:22;;;;;;;1.55;1.00;;;;;;;10.82;95.61;95463.25;5078748;28;20037;-78
2021/07/01 00:17:48;;;;;;;1.65;1.02;;;;;;;10.87;95.29;95455.31;5077935;28;20041;-78
2021/07/01 00:20:15;;;;;;;2.63;1.10;;;;;;;10.82;96.01;95457.97;5089574;28;20101;-77
2021/07/01 00:22:40;;;;;;;1.25;1.00;;;;;;;10.85;94.46;95459.28;5088203;28;20078;-78
2021/07/01 00:25:09;;;;;;;1.35;1.17;;;;;;;10.86;94.66;95459.03;5075395;28;20049;-78
2021/07/01 00:27:35;;;;;;;1.30;1.08;;;;;;;10.79;95.63;95457.72;5077132;28;20048;-77
2021/07/01 00:30:01;;;;;;;1.58;1.10;;;;;;;10.79;95.10;95457.72;5068911;28;20101;-77
2021/07/01 00:32:26;;;;;;;1.17;1.00;;;;;;;10.72;95.08;95458.03;5080411;28;20040;-78
2021/07/01 00:34:52;;;;;;;3.50;1.30;;;;;;;10.71;96.33;95462.50;5085612;28;20085;-77
2021/07/01 00:37:17;;;;;;;6.50;1.40;;;;;;;10.65;96.07;95462.81;5078830;28;20032;-77
2021/07/01 00:39:43;;;;;;;1.30;1.20;;;;;;;10.68;95.08;95463.03;5060439;28;20045;-77
2021/07/01 00:42:08;;;;;;;1.52;1.25;;;;;;;10.71;94.15;95461.72;5104288;28;20040;-77
2021/07/01 00:44:34;;;;;;;1.48;1.10;;;;;;;10.66;94.88;95459.09;5094941;28;20259;-77
2021/07/01 00:46:59;;;;;;;2.17;1.48;;;;;;;10.62;94.03;95464.13;5076090;28;20045;-77
2021/07/01 00:49:25;;;;;;;3.20;1.40;;;;;;;10.66;94.91;95464.38;5085126;28;20127;-77
2021/07/01 00:51:54;;;;;;;2.13;1.40;;;;;;;10.60;94.23;95465.47;5079337;28;20505;-77
2021/07/01 00:54:20;;;;;;;2.95;1.30;;;;;;;10.57;94.42;95462.31;5074270;28;20037;-77
2021/07/01 00:56:46;;;;;;;2.72;1.40;;;;;;;10.51;95.07;95459.97;5073337;28;20041;-77
2021/07/01 00:59:11;;;;;;;1.92;1.35;;;;;;;10.59;93.68;95454.16;5079511;28;20106;-77
2021/07/01 01:01:37;;;;;;;3.15;1.60;;;;;;;10.57;94.72;95451.78;5087214;28;20120;-78
2021/07/01 01:04:04;;;;;;;2.53;1.50;;;;;;;10.57;94.29;95461.50;5076009;28;20037;-77
2021/07/01 01:06:30;;;;;;;3.92;1.70;;;;;;;10.53;94.53;95460.47;5084014;28;20090;-77
2021/07/01 01:08:57;;;;;;;3.17;1.65;;;;;;;10.54;93.97;95457.59;5085310;28;20048;-77
2021/07/01 01:11:26;;;;;;;2.30;1.50;;;;;;;10.53;94.55;95460.47;5080127;28;20040;-77
2021/07/01 01:13:53;;;;;;;2.83;1.70;;;;;;;10.52;94.27;95464.97;5095904;28;20090;-77
2021/07/01 01:16:19;;;;;;;3.70;1.50;;;;;;;10.45;94.45;95459.19;5089250;28;20044;-77
2021/07/01 01:18:45;;;;;;;4.88;1.70;;;;;;;10.48;95.09;95463.16;5071150;28;20048;-77
2021/07/01 01:21:12;;;;;;;2.88;1.70;;;;;;;10.48;94.38;95458.66;5072179;28;20438;-77
2021/07/01 01:23:38;;;;;;;3.45;1.50;;;;;;;10.43;94.80;95461.31;5066533;28;20143;-78
2021/07/01 01:26:04;;;;;;;4.70;1.35;;;;;;;10.45;94.73;95459.19;5077932;28;20064;-78
2021/07/01 01:28:29;;;;;;;2.90;1.60;;;;;;;10.35;95.62;95454.00;5074460;28;20041;-78
2021/07/01 01:30:55;;;;;;;2.63;1.60;;;;;;;10.40;95.88;95451.31;5088574;28;20040;-78
2021/07/01 01:33:21;;;;;;;3.50;1.65;;;;;;;10.43;95.34;95458.69;5076935;28;20040;-78
2021/07/01 01:35:47;;;;;;;2.67;1.70;;;;;;;10.49;95.54;95457.63;5073787;28;20466;-77
2021/07/01 01:38:15;;;;;;;2.80;1.70;;;;;;;10.46;95.57;95459.97;5069531;28;20036;-78
2021/07/01 01:40:44;;;;;;;2.35;1.67;;;;;;;10.40;96.02;95451.31;5101142;28;20066;-78
2021/07/01 01:43:10;;;;;;;4.90;1.75;;;;;;;10.43;96.17;95450.81;5081735;28;20047;-78
2021/07/01 01:45:40;;;;;;;3.03;1.83;;;;;;;10.43;96.20;95452.63;5077685;28;20418;-78
2021/07/01 01:48:06;;;;;;;3.25;1.60;;;;;;;10.40;96.90;95451.31;5078673;28;20040;-78
2021/07/01 01:50:32;;;;;;;2.28;1.50;;;;;;;10.39;96.96;95455.03;5080148;28;20090;-78
2021/07/01 01:52:58;;;;;;;3.67;1.73;;;;;;;10.46;96.46;95450.25;5101493;28;20036;-78
2021/07/01 01:55:24;;;;;;;1.67;1.48;;;;;;;10.42;97.15;95454.47;5077039;28;20095;-78
2021/07/01 01:57:51;;;;;;;2.50;1.40;;;;;;;10.52;95.84;95459.69;5067990;28;20234;-78
2021/07/01 02:00:20;;;;;;;1.83;1.42;;;;;;;10.53;96.02;95455.22;5110460;28;20036;-78
2021/07/01 02:02:46;;;;;;;2.42;1.52;;;;;;;10.48;96.96;95458.66;5085424;28;20033;-78
2021/07/01 02:05:12;;;;;;;1.75;1.40;;;;;;;10.50;96.31;95456.56;5077256;28;20036;-78
2021/07/01 02:07:39;;;;;;;2.85;1.60;;;;;;;10.56;95.84;95460.75;5078080;28;20032;-78
2021/07/01 02:10:13;;;;;;;4.82;1.42;;;;;;;10.61;95.10;95461.78;5084453;28;20051;-78
2021/07/01 02:12:39;;;;;;;3.17;1.50;;;;;;;10.56;96.23;95460.75;5081967;28;20074;-78
2021/07/01 02:15:07;;;;;;;1.73;1.30;;;;;;;10.61;95.46;95459.16;5077496;28;20052;-77
2021/07/01 02:17:34;;;;;;;1.85;1.38;;;;;;;10.67;95.15;95458.06;5089819;28;20051;-77
2021/07/01 02:20:01;;;;;;;2.15;1.65;;;;;;;10.58;96.19;95453.34;5082081;28;20131;-78
2021/07/01 02:22:27;;;;;;;2.63;1.40;;;;;;;10.62;96.15;95455.47;5091353;28;20055;-78
2021/07/01 02:24:53;;;;;;;2.67;1.70;;;;;;;10.62;96.57;95458.09;5079396;28;20040;-78
2021/07/01 02:27:18;;;;;;;2.72;1.40;;;;;;;10.65;96.07;95457.56;5075412;28;20107;-78
2021/07/01 02:29:44;;;;;;;1.83;1.40;;;;;;;10.74;95.96;95456.69;5078876;28;20060;-78
2021/07/01 02:32:09;;;;;;;3.05;1.48;;;;;;;10.79;95.25;95453.28;5092845;28;20044;-78
2021/07/01 02:34:40;;;;;;;3.35;1.50;;;;;;;10.80;95.27;95449.56;5093846;28;20095;-78
2021/07/01 02:37:10;;;;;;;2.47;1.80;;;;;;;10.74;95.94;95455.91;5081868;28;20066;-78
2021/07/01 02:39:36;;;;;;;1.65;1.30;;;;;;;10.86;94.23;95451.13;5086817;28;20050;-77
2021/07/01 02:42:03;;;;;;;2.13;1.60;;;;;;;10.85;94.68;95457.44;5091968;28;20075;-77
2021/07/01 02:44:28;;;;;;;1.60;1.33;;;;;;;10.82;94.82;95457.19;5068797;28;20425;-78
2021/07/01 02:46:54;;;;;;;4.20;1.55;;;;;;;10.84;94.32;95455.84;5068069;28;20037;-77
2021/07/01 02:49:20;;;;;;;2.83;1.85;;;;;;;10.82;94.80;95463.25;5073520;28;20040;-78
2021/07/01 02:51:45;;;;;;;3.33;1.60;;;;;;;10.84;94.84;95471.66;5071974;28;20047;-77
2021/07/01 02:54:11;;;;;;;3.10;1.75;;;;;;;10.86;94.97;95474.81;5104467;28;20041;-78
2021/07/01 02:56:40;;;;;;;3.35;1.83;;;;;;;10.80;95.41;95470.63;5088264;28;20097;-77
2021/07/01 02:59:14;;;;;;;2.50;1.60;;;;;;;10.91;94.65;95477.41;5081117;28;20048;-77
2021/07/01 03:01:44;;;;;;;2.50;1.70;;;;;;;10.89;95.13;95479.53;5075715;28;20413;-77
2021/07/01 03:04:10;;;;;;;3.80;2.10;;;;;;;10.87;94.89;95465.06;5074717;28;20050;-78
2021/07/01 03:06:36;;;;;;;3.25;1.90;;;;;;;10.90;94.50;95480.31;5073537;28;20060;-77
2021/07/01 03:09:04;;;;;;;3.72;1.88;;;;;;;10.94;94.39;95475.31;5071055;28;20049;-78
2021/07/01 03:11:29;;;;;;;2.70;1.85;;;;;;;10.98;94.54;95471.06;5077132;28;20115;-78
2021/07/01 03:13:55;;;;;;;4.30;2.05;;;;;;;10.98;94.94;95481.59;5086501;28;20570;-78
2021/07/01 03:16:21;;;;;;;4.07;1.92;;;;;;;10.97;95.53;95474.75;5099729;28;20059;-78
2021/07/01 03:18:48;;;;;;;2.45;1.80;;;;;;;10.98;95.08;95476.34;5083326;28;20043;-78
2021/07/01 03:21:15;;;;;;;2.35;1.70;;;;;;;10.97;95.05;95469.50;5079618;28;20048;-78
2021/07/01 03:23:42;;;;;;;4.65;2.08;;;;;;;10.95;95.65;95479.50;5079784;28;20044;-78
2021/07/01 03:26:07;;;;;;;2.70;1.90;;;;;;;11.04;95.09;95475.25;5082457;28;20089;-77
2021/07/01 03:28:33;;;;;;;3.72;1.80;;;;;;;11.02;95.39;95482.59;5084667;28;20472;-78
2021/07/01 03:30:59;;;;;;;4.05;1.90;;;;;;;11.05;95.30;95476.81;5087998;28;20059;-78
2021/07/01 03:33:24;;;;;;;3.53;2.28;;;;;;;11.07;95.11;95474.69;5084774;28;20519;-78
2021/07/01 03:35:50;;;;;;;4.05;2.10;;;;;;;11.06;94.78;95473.09;5074542;28;20039;-78
2021/07/01 03:38:16;;;;;;;3.05;2.20;;;;;;;11.03;95.62;95468.38;5089867;28;20089;-77
2021/07/01 03:40:41;;;;;;;3.17;2.05;;;;;;;11.12;94.04;95477.31;5091375;28;20528;-78
2021/07/01 03:43:07;;;;;;;3.20;2.08;;;;;;;11.13;94.32;95484.13;5078602;28;20036;-78
2021/07/01 03:45:33;;;;;;;4.15;2.20;;;;;;;11.08;94.17;95476.28;5083869;28;20056;-78
2021/07/01 03:47:58;;;;;;;4.05;2.10;;;;;;;11.04;94.62;95480.50;5106229;28;20069;-78
2021/07/01 03:50:24;;;;;;;5.15;2.22;;;;;;;11.02;94.67;95487.88;5092822;28;20472;-79
2021/07/01 03:52:49;;;;;;;3.38;2.10;;;;;;;11.04;95.05;95480.50;5108121;28;20086;-78
2021/07/01 03:55:15;;;;;;;3.72;2.13;;;;;;;11.05;94.28;95482.88;5092679;28;20041;-79
2021/07/01 03:57:40;;;;;;;2.70;1.90;;;;;;;11.09;93.65;95483.09;5073237;28;20433;-78
2021/07/01 04:00:08;;;;;;;3.83;2.33;;;;;;;11.05;94.71;95482.09;5081996;28;20075;-77
2021/07/01 04:02:34;;;;;;;3.33;2.05;;;;;;;11.09;95.19;95483.09;5089420;28;20063;-78
2021/07/01 04:04:59;;;;;;;4.95;2.70;;;;;;;11.06;94.69;95483.66;5097673;28;20052;-78
2021/07/01 04:07:25;;;;;;;7.90;2.53;;;;;;;11.09;94.92;95483.09;5081564;28;20039;-79
2021/07/01 04:09:52;;;;;;;6.07;2.72;;;;;;;11.10;94.35;95492.56;5102633;28;20051;-79
2021/07/01 04:12:17;;;;;;;4.97;2.28;;;;;;;11.11;94.85;95486.25;5083633;28;20460;-79
2021/07/01 04:14:43;;;;;;;3.80;2.00;;;;;;;11.12;94.32;95498.38;5080849;28;20052;-79
2021/07/01 04:17:09;;;;;;;3.22;2.10;;;;;;;11.11;95.64;95502.06;5085556;28;20033;-79
2021/07/01 04:19:35;;;;;;;3.33;2.10;;;;;;;11.08;94.91;95502.59;5080004;28;20044;-79
2021/07/01 04:22:00;;;;;;;7.45;2.60;;;;;;;11.16;94.76;95503.88;5087776;28;20056;-79
2021/07/01 04:24:26;;;;;;;3.65;2.20;;;;;;;11.13;94.95;95499.94;5087518;28;20528;-79
2021/07/01 04:26:51;;;;;;;5.70;2.20;;;;;;;11.16;94.96;95494.13;5095431;28;20041;-79
2021/07/01 04:29:18;;;;;;;4.50;2.22;;;;;;;11.19;95.12;95496.22;5078928;28;20068;-79
2021/07/01 04:31:44;;;;;;;2.75;1.92;;;;;;;11.24;92.62;95501.44;5092116;28;20042;-78
2021/07/01 04:34:09;;;;;;;5.15;2.17;;;;;;;11.22;92.67;95498.31;5090293;28;20060;-79
2021/07/01 04:36:35;;;;;;;4.20;2.15;;;;;;;11.23;92.24;95493.81;5086458;28;20037;-79
2021/07/01 04:39:00;;;;;;;4.95;2.55;;;;;;;11.20;93.18;95500.41;5095539;28;20344;-79
2021/07/01 04:41:26;;;;;;;4.20;2.28;;;;;;;11.17;93.32;95505.44;5080469;28;20044;-79
2021/07/01 04:43:52;;;;;;;5.45;2.30;;;;;;;11.17;93.53;95500.97;5089596;28;20075;-78
2021/07/01 04:46:17;;;;;;;3.72;2.38;;;;;;;11.17;93.67;95506.22;5082385;28;20085;-79
2021/07/01 04:48:43;;;;;;;5.60;2.38;;;;;;;11.19;93.53;95498.84;5092027;28;20094;-79
2021/07/01 04:51:09;;;;;;;4.03;2.10;;;;;;;11.18;93.28;95496.50;5070072;28;20068;-79
2021/07/01 04:53:35;;;;;;;3.78;2.10;;;;;;;11.18;93.22;95502.53;5094934;28;20119;-79
2021/07/01 04:56:00;;;;;;;5.30;2.05;;;;;;;11.15;94.06;95508.38;5078055;28;20110;-79
2021/07/01 04:58:26;;;;;;;3.20;2.17;;;;;;;11.16;94.09;95504.69;5071900;28;20426;-80
2021/07/01 05:00:52;;;;;;;5.38;1.90;;;;;;;11.14;93.49;95506.78;5097442;28;20469;-79
2021/07/01 05:03:18;;;;;;;3.22;2.00;;;;;;;11.17;93.69;95505.44;5079592;28;20032;-79
2021/07/01 05:05:43;;;;;;;3.92;2.15;;;;;;;11.14;92.90;95512.03;5097867;28;20375;-80
2021/07/01 05:08:09;;;;;;;3.50;2.10;;;;;;;11.21;93.17;95507.25;5090077;28;20039;-82
2021/07/01 05:10:34;;;;;;;3.75;2.08;;;;;;;11.17;93.83;95516.75;5070363;28;20063;-81
2021/07/01 05:13:00;;;;;;;3.45;2.08;;;;;;;11.15;94.27;95513.63;5080036;28;20040;-80
2021/07/01 05:15:26;;;;;;;5.85;2.20;;;;;;;11.17;93.55;95522.03;5078472;28;20041;-79
2021/07/01 05:17:51;;;;;;;3.10;2.30;;;;;;;11.20;94.23;95510.16;5076768;28;20049;-80
2021/07/01 05:20:17;;;;;;;4.10;2.13;;;;;;;11.15;94.02;95518.91;5077914;28;20040;-80
2021/07/01 05:22:43;;;;;;;5.22;2.08;;;;;;;11.07;94.26;95511.56;5087357;28;20040;-80
2021/07/01 05:25:09;;;;;;;3.50;2.13;;;;;;;11.11;95.26;95517.09;5080609;28;20493;-80
2021/07/01 05:27:35;;;;;;;5.28;2.40;;;;;;;11.10;95.01;95521.53;5088860;28;20045;-81
2021/07/01 05:30:01;;;;;;;3.83;2.20;;;;;;;11.12;94.27;95518.63;5096215;28;20051;-79
2021/07/01 05:32:26;;;;;;;4.63;2.67;;;;;;;11.10;95.89;95521.53;5091758;28;20036;-81
2021/07/01 05:34:52;;;;;;;5.20;2.38;;;;;;;11.15;94.70;95524.16;5083482;28;20509;-79
2021/07/01 05:37:18;;;;;;;3.92;2.60;;;;;;;11.16;94.62;95520.47;5074548;28;20048;-80
2021/07/01 05:39:43;;;;;;;3.90;2.58;;;;;;;11.14;94.97;95521.81;5067484;28;20045;-80
2021/07/01 05:42:09;;;;;;;5.15;2.60;;;;;;;11.16;95.68;95520.47;5088053;28;20119;-80
2021/07/01 05:44:35;;;;;;;4.53;2.70;;;;;;;11.14;95.62;95527.06;5084346;28;20740;-81
2021/07/01 05:47:00;;;;;;;5.55;2.50;;;;;;;11.18;95.33;95518.34;5072130;28;20056;-81
2021/07/01 05:49:26;;;;;;;4.50;2.67;;;;;;;11.20;95.44;95526.75;5076482;28;20044;-81
2021/07/01 05:51:56;;;;;;;4.03;2.50;;;;;;;11.23;95.12;95525.44;5082603;28;20036;-81
2021/07/01 05:54:31;;;;;;;4.30;2.50;;;;;;;11.30;94.50;95519.88;5078908;28;20039;-81
2021/07/01 05:56:57;;;;;;;4.45;2.70;;;;;;;11.34;94.23;95526.16;5074157;28;20059;-82
2021/07/01 05:59:23;;;;;;;4.50;2.58;;;;;;;11.42;92.60;95522.94;5077640;28;20036;-80
2021/07/01 06:01:48;;;;;;;3.90;2.58;;;;;;;11.41;93.97;95531.91;5053095;28;20467;-81
2021/07/01 06:04:14;;;;;;;4.43;2.72;;;;;;;11.50;92.93;95535.53;5070385;28;20499;-80
2021/07/01 06:06:44;;;;;;;4.47;2.88;;;;;;;11.56;92.88;95529.16;5073869;28;20037;-80
2021/07/01 06:09:14;;;;;;;5.20;2.83;;;;;;;11.64;93.16;95529.63;5071571;28;20033;-80
2021/07/01 06:11:40;;;;;;;4.45;2.83;;;;;;;11.67;92.64;95534.38;5072819;28;20418;-81
2021/07/01 06:14:06;;;;;;;5.65;2.95;;;;;;;11.75;92.77;95541.69;5074266;28;20033;-80
2021/07/01 06:16:34;;;;;;;4.68;3.05;;;;;;;11.75;92.81;95541.69;5073556;28;20046;-80
2021/07/01 06:19:02;;;;;;;4.47;2.63;;;;;;;11.80;91.29;95539.00;5075260;28;20041;-80
2021/07/01 06:21:28;;;;;;;5.32;2.85;;;;;;;11.85;92.57;95546.91;5074633;28;20037;-80
2021/07/01 06:23:55;;;;;;;3.85;2.60;;;;;;;11.82;91.18;95546.66;5080029;28;20065;-79
2021/07/01 06:26:27;;;;;;;4.93;2.60;;;;;;;11.84;91.21;95542.69;5080102;28;20106;-79
2021/07/01 06:28:54;;;;;;;4.57;2.80;;;;;;;11.72;92.11;95548.31;5068476;28;20205;-78
2021/07/01 06:31:20;;;;;;;5.05;2.63;;;;;;;11.78;91.91;95546.41;5067899;28;20502;-81
2021/07/01 06:33:46;;;;;;;5.47;2.72;;;;;;;11.86;91.58;95543.16;5086430;28;20040;-77
2021/07/01 06:36:14;;;;;;;4.32;2.80;;;;;;;11.87;91.79;95544.75;5068917;28;20039;-79
2021/07/01 06:38:45;;;;;;;5.28;3.13;;;;;;;11.82;91.96;95547.41;5085595;28;20044;-79
2021/07/01 06:41:13;;;;;;;4.97;2.78;;;;;;;11.74;93.86;95545.41;5072819;28;20032;-79
2021/07/01 06:43:41;;;;;;;4.90;2.88;;;;;;;11.88;93.19;95541.06;5072476;28;20066;-78
2021/07/01 06:46:09;;;;;;;4.75;3.00;;;;;;;11.87;94.68;95555.31;5089386;28;20029;-77
2021/07/01 06:48:37;;;;;;;5.75;3.05;;;;;;;12.02;93.36;95562.31;5068510;28;20033;-81
2021/07/01 06:51:03;;;;;;;6.20;3.25;;;;;;;11.95;93.14;95546.84;5069973;28;20099;-78
2021/07/01 06:53:29;;;;;;;4.72;2.78;;;;;;;11.89;92.49;95552.38;5074706;28;20049;-79
2021/07/01 06:55:55;;;;;;;4.15;2.83;;;;;;;11.91;94.15;95561.59;5079356;28;20343;-80
2021/07/01 06:58:21;;;;;;;4.57;2.53;;;;;;;12.04;91.02;95559.41;5067834;28;20088;-79
2021/07/01 07:00:48;;;;;;;8.65;3.00;;;;;;;12.01;92.93;95565.25;5067740;28;20051;-79
2021/07/01 07:03:17;;;;;;;5.95;3.13;;;;;;;12.03;94.48;95568.41;5079880;28;20045;-80
2021/07/01 07:05:52;;;;;;;4.78;2.80;;;;;;;12.03;92.46;95563.91;5096419;28;20131;-80
2021/07/01 07:08:18;;;;;;;4.90;2.72;;;;;;;12.03;93.32;95571.03;5086305;28;20041;-80
2021/07/01 07:10:45;;;;;;;4.10;2.75;;;;;;;12.03;93.08;95565.75;5061570;28;20098;-81
2021/07/01 07:13:12;;;;;;;4.10;2.50;;;;;;;12.10;93.37;95574.16;5070390;28;20174;-82
2021/07/01 07:15:40;;;;;;;5.00;2.58;;;;;;;12.09;93.36;95572.56;5061670;28;20059;-80
2021/07/01 07:18:15;;;;;;;6.10;2.75;;;;;;;12.11;93.07;95571.22;5061212;28;20040;-82
2021/07/01 07:20:42;;;;;;;5.80;2.70;;;;;;;12.21;93.26;95574.81;5059813;28;20099;-81
2021/07/01 07:23:08;;;;;;;4.40;2.45;;;;;;;12.25;92.87;95571.34;5068863;28;20706;-77
2021/07/01 07:25:40;;;;;;;3.90;2.42;;;;;;;12.29;92.23;95577.66;5072935;28;20041;-81
2021/07/01 07:28:08;;;;;;;6.15;2.40;;;;;;;12.22;92.68;95571.91;5068530;28;20041;-82
2021/07/01 07:30:34;;;;;;;5.30;2.55;;;;;;;12.35;92.01;95585.53;5058608;28;20435;-81
2021/07/01 07:33:06;;;;;;;3.40;2.40;;;;;;;12.32;92.48;95580.81;5066077;28;20052;-79
2021/07/01 07:35:36;;;;;;;3.65;2.17;;;;;;;12.45;93.03;95580.94;5061516;28;20029;-81
2021/07/01 07:38:04;;;;;;;4.22;2.55;;;;;;;12.47;93.03;95583.31;5072442;28;20043;-80
2021/07/01 07:40:30;;;;;;;45.65;16.23;;;;;;;12.51;92.27;95579.03;5083744;28;20382;-79
2021/07/01 07:42:58;;;;;;;15.98;5.30;;;;;;;12.68;90.72;95577.81;5067526;28;20098;-78
2021/07/01 07:45:24;;;;;;;6.68;3.00;;;;;;;12.61;90.73;95591.34;5069119;28;20051;-78
2021/07/01 07:47:49;;;;;;;7.38;3.25;;;;;;;12.60;91.12;95582.63;5068238;28;20036;-79
2021/07/01 07:50:15;;;;;;;5.97;2.97;;;;;;;12.64;92.08;95583.66;5067018;28;20111;-78
2021/07/01 07:52:48;;;;;;;2.90;2.03;;;;;;;12.72;90.31;95578.84;5061754;28;20406;-78
2021/07/01 07:55:21;;;;;;;3.20;2.17;;;;;;;12.69;89.38;95579.41;5079311;28;20044;-78
2021/07/01 07:57:52;;;;;;;3.35;2.03;;;;;;;12.66;89.75;95575.47;5057379;28;20037;-78
2021/07/01 08:00:18;;;;;;;4.00;2.10;;;;;;;12.70;90.60;95580.94;5067797;28;20486;-78
2021/07/01 08:02:55;;;;;;;2.58;1.90;;;;;;;12.67;89.29;95576.22;5068825;28;20037;-76
2021/07/01 08:05:28;;;;;;;4.20;1.98;;;;;;;12.67;89.64;95576.22;5066089;28;20037;-77
2021/07/01 08:07:54;;;;;;;3.05;1.88;;;;;;;12.64;90.13;95567.81;5066730;28;20121;-77
2021/07/01 08:10:28;;;;;;;3.20;2.03;;;;;;;12.72;89.75;95574.31;5070302;28;20060;-76
2021/07/01 08:13:01;;;;;;;2.20;1.60;;;;;;;12.76;89.30;95574.56;5066879;28;20039;-76
2021/07/01 08:15:28;;;;;;;4.15;2.13;;;;;;;12.68;90.00;95572.53;5063929;28;20054;-76
2021/07/01 08:17:54;;;;;;;5.82;2.78;;;;;;;12.67;89.75;95571.75;5084941;28;20114;-77
2021/07/01 08:20:22;;;;;;;7.53;3.67;;;;;;;12.64;90.18;95574.94;5066780;28;20089;-76
2021/07/01 08:22:50;;;;;;;6.05;2.80;;;;;;;12.67;90.06;95565.66;5065833;28;20033;-77
2021/07/01 08:25:16;;;;;;;4.25;2.53;;;;;;;12.72;90.95;95578.84;5065219;28;20044;-76
2021/07/01 08:27:43;;;;;;;2.58;1.80;;;;;;;12.80;88.76;95580.84;5061665;28;20042;-78
2021/07/01 08:30:10;;;;;;;2.85;2.00;;;;;;;12.83;89.36;95575.00;5065359;28;20116;-78
2021/07/01 08:32:37;;;;;;;3.35;1.77;;;;;;;12.86;88.46;95579.72;5067880;28;20044;-78
2021/07/01 08:35:04;;;;;;;4.63;2.00;;;;;;;12.96;89.05;95584.13;5066205;28;20040;-78
2021/07/01 08:37:31;;;;;;;3.20;1.90;;;;;;;12.95;87.28;95578.03;5062238;28;20045;-77
2021/07/01 08:40:00;;;;;;;3.55;1.90;;;;;;;13.01;88.05;95581.38;5063569;28;20052;-78
2021/07/01 08:42:32;;;;;;;3.53;2.10;;;;;;;13.03;87.75;95589.03;5063374;28;20044;-78
2021/07/01 08:45:02;;;;;;;2.28;1.73;;;;;;;13.04;86.77;95585.34;5078809;28;20521;-79
2021/07/01 08:47:42;;;;;;;2.92;1.80;;;;;;;13.05;87.78;95587.69;5064457;28;20048;-76
2021/07/01 08:50:14;;;;;;;3.72;1.73;;;;;;;12.99;86.96;95594.88;5071786;28;20043;-79
2021/07/01 08:53:02;;;;;;;4.88;2.30;;;;;;;12.95;87.78;95599.16;5066457;28;20090;-78
2021/07/01 08:55:30;;;;;;;3.42;2.10;;;;;;;13.00;87.99;95596.47;5068414;28;20036;-78
2021/07/01 08:57:59;;;;;;;2.85;1.92;;;;;;;12.98;88.91;95593.31;5062406;28;20037;-77
2021/07/01 09:00:26;;;;;;;3.03;2.10;;;;;;;13.03;89.50;95594.31;5063344;28;20051;-76
2021/07/01 09:03:03;;;;;;;3.63;2.15;;;;;;;13.09;88.39;95598.50;5060764;28;20032;-78
2021/07/01 09:05:31;;;;;;;3.72;2.30;;;;;;;13.19;86.90;95593.06;5063225;28;20052;-76
2021/07/01 09:08:00;;;;;;;3.67;2.22;;;;;;;13.33;88.39;95588.66;5069454;28;20387;-77
2021/07/01 09:10:28;;;;;;;5.38;2.38;;;;;;;13.41;87.04;95589.13;5064906;28;20506;-77
2021/07/01 09:12:56;;;;;;;4.10;2.25;;;;;;;13.57;88.35;95592.34;5075075;28;20036;-79
2021/07/01 09:15:23;;;;;;;3.60;2.60;;;;;;;13.69;85.61;95601.44;5086453;28;20349;-76
2021/07/01 09:17:49;;;;;;;5.60;2.50;;;;;;;13.76;85.86;95594.97;5074783;28;20108;-78
2021/07/01 09:20:20;;;;;;;4.85;2.30;;;;;;;13.82;85.35;95593.81;5070114;28;20067;-79
2021/07/01 09:22:48;;;;;;;4.45;2.63;;;;;;;13.94;86.78;95586.25;5069619;28;20045;-78
2021/07/01 09:25:15;;;;;;;3.65;2.42;;;;;;;14.16;86.06;95590.13;5082188;28;20490;-78
2021/07/01 09:27:47;;;;;;;3.90;2.70;;;;;;;14.32;84.82;95591.47;5069281;28;20046;-78
2021/07/01 09:30:14;;;;;;;3.95;2.63;;;;;;;14.44;86.30;95598.13;5075480;28;20482;-77
2021/07/01 09:32:41;;;;;;;3.78;2.60;;;;;;;14.43;84.94;95591.28;5080113;28;20051;-78
2021/07/01 09:35:10;;;;;;;5.68;2.50;;;;;;;14.35;84.32;95598.81;5089470;28;20041;-79
2021/07/01 09:37:44;;;;;;;4.35;2.60;;;;;;;14.42;85.05;95606.38;5081884;28;20048;-78
2021/07/01 09:40:12;;;;;;;4.45;2.50;;;;;;;14.37;83.17;95594.00;5070936;28;20067;-78
2021/07/01 09:42:39;;;;;;;4.30;2.50;;;;;;;14.49;84.62;95595.41;5078646;28;20040;-79
2021/07/01 09:45:11;;;;;;;3.33;2.42;;;;;;;14.43;84.44;95591.28;5092340;28;20040;-79
2021/07/01 09:47:39;;;;;;;3.83;2.45;;;;;;;14.43;84.78;95607.16;5071270;28;20386;-77
2021/07/01 09:50:06;;;;;;;5.53;2.50;;;;;;;14.23;85.78;95598.47;5072710;28;20444;-78
2021/07/01 09:52:35;;;;;;;4.43;2.70;;;;;;;14.18;85.04;95612.59;5073896;28;20063;-78
2021/07/01 09:55:02;;;;;;;4.32;2.53;;;;;;;14.24;84.90;95605.34;5070616;28;21724;-78
2021/07/01 09:57:30;;;;;;;4.40;2.55;;;;;;;14.09;84.66;95608.25;5071160;28;20046;-77
2021/07/01 09:59:59;;;;;;;4.28;2.83;;;;;;;14.11;85.08;95606.09;5072259;28;20064;-77
2021/07/01 10:02:25;;;;;;;4.32;2.70;;;;;;;14.35;84.23;95601.47;5075857;28;20066;-78
2021/07/01 10:04:51;;;;;;;3.97;2.72;;;;;;;14.60;85.46;95602.09;5073807;28;20040;-77
2021/07/01 10:07:22;;;;;;;3.60;2.42;;;;;;;14.78;83.90;95599.69;5090444;28;20798;-77
2021/07/01 10:09:52;;;;;;;4.45;2.67;;;;;;;14.76;83.68;95599.19;5074219;28;20064;-78
2021/07/01 10:12:29;;;;;;;5.22;2.63;;;;;;;14.75;83.12;95592.31;5079866;28;20045;-77
2021/07/01 10:14:58;;;;;;;3.97;2.80;;;;;;;14.89;83.38;95595.75;5071232;28;20033;-79
2021/07/01 10:17:25;;;;;;;4.25;2.67;;;;;;;15.03;82.97;95593.91;5072001;28;20448;-77
2021/07/01 10:20:05;;;;;;;4.88;2.70;;;;;;;14.95;81.29;95586.63;5067442;28;20135;-76
2021/07/01 10:22:36;;;;;;;4.07;2.67;;;;;;;14.79;81.75;95582.72;5069566;28;20063;-76
2021/07/01 10:25:02;;;;;;;4.72;2.50;;;;;;;14.80;79.34;95589.59;5071385;28;20052;-78
2021/07/01 10:27:46;;;;;;;3.33;2.47;;;;;;;14.63;80.75;95588.28;5067989;28;20045;-76
2021/07/01 10:30:22;;;;;;;5.40;2.70;;;;;;;14.42;83.83;95589.72;5079006;28;20040;-77
2021/07/01 10:32:50;;;;;;;4.10;2.58;;;;;;;14.31;85.12;95600.47;5056815;28;20061;-77
2021/07/01 10:35:33;;;;;;;5.57;3.15;;;;;;;14.04;88.84;95601.94;5070083;28;20041;-77
2021/07/01 10:38:11;;;;;;;6.10;3.22;;;;;;;13.86;89.51;95600.13;5076534;28;20064;-80
2021/07/01 10:40:44;;;;;;;6.93;3.30;;;;;;;13.76;90.17;95600.28;5070338;28;20047;-79
2021/07/01 10:43:11;;;;;;;6.38;3.55;;;;;;;13.65;90.50;95603.06;5068982;28;20033;-79
2021/07/01 10:45:50;;;;;;;6.65;4.05;;;;;;;13.51;93.10;95589.75;5078398;28;20419;-79
2021/07/01 10:48:18;;;;;;;6.85;3.85;;;;;;;13.60;93.76;95591.78;5069832;28;20044;-77
2021/07/01 10:50:46;;;;;;;7.88;4.43;;;;;;;13.58;93.55;95600.00;5069042;28;20048;-76
2021/07/01 10:53:32;;;;;;;7.55;3.50;;;;;;;13.48;92.06;95606.19;5068250;28;20051;-78
2021/07/01 10:56:00;;;;;;;6.07;3.28;;;;;;;13.50;92.92;95592.69;5087112;28;20049;-77
2021/07/01 10:58:27;;;;;;;7.13;3.30;;;;;;;13.47;95.45;95595.91;5100572;28;20125;-79
2021/07/01 11:00:54;;;;;;;8.90;3.65;;;;;;;13.52;95.53;95590.56;5087907;28;20059;-78
2021/07/01 11:03:22;;;;;;;4.60;3.08;;;;;;;13.69;92.61;95580.28;5075423;28;20408;-78
2021/07/01 11:05:49;;;;;;;4.72;3.35;;;;;;;13.90;92.87;95579.94;5083923;28;20100;-80
2021/07/01 11:08:34;;;;;;;4.13;2.70;;;;;;;14.12;92.72;95591.78;5084317;28;20048;-78
2021/07/01 11:11:02;;;;;;;4.40;3.05;;;;;;;14.49;92.99;95595.41;5061386;28;20049;-81
2021/07/01 11:13:29;;;;;;;7.10;3.58;;;;;;;14.84;92.07;95590.56;5089792;28;20058;-78
2021/07/01 11:16:09;;;;;;;4.93;2.80;;;;;;;14.83;90.05;95589.78;5099716;28;20063;-78
2021/07/01 11:18:43;;;;;;;5.10;2.75;;;;;;;14.72;89.31;95586.56;5088515;28;20048;-79
2021/07/01 11:21:17;;;;;;;6.05;3.17;;;;;;;14.81;89.34;95580.56;5087630;28;20032;-78
2021/07/01 11:23:46;;;;;;;5.22;3.20;;;;;;;14.69;89.89;95587.13;5090278;28;20044;-78
2021/07/01 11:26:30;;;;;;;6.20;3.38;;;;;;;14.54;90.67;95582.09;5075888;28;20036;-78
2021/07/01 11:28:57;;;;;;;;;;;;;;;14.59;91.99;95587.28;5085713;28;20040;-79
2021/07/01 11:31:42;;;;;;;6.40;3.55;;;;;;;14.46;90.08;95590.69;5085698;28;19985;-78
2021/07/01 11:34:09;;;;;;;4.43;3.10;;;;;;;14.37;89.85;95588.72;5103796;28;20036;-79
2021/07/01 11:36:36;;;;;;;7.22;4.05;;;;;;;14.26;92.35;95582.00;5073584;28;20055;-79